createdAt,value
2022-08-23T00:02:27.410Z,45.97
2022-08-23T00:05:07.795Z,46.05
2022-08-23T00:07:42.633Z,46.15
2022-08-23T00:10:13.402Z,46.31
2022-08-23T00:12:40.826Z,46.45
2022-08-23T00:15:13.517Z,46.18
2022-08-23T00:17:40.994Z,46.75
2022-08-23T00:20:12.363Z,46.60
2022-08-23T00:22:40.490Z,46.83
2022-08-23T00:25:11.539Z,46.67
2022-08-23T00:27:39.189Z,46.61
2022-08-23T00:30:10.726Z,46.67
2022-08-23T00:32:40.494Z,47.04
2022-08-23T00:35:10.035Z,46.58
2022-08-23T00:37:38.203Z,46.82
2022-08-23T00:40:09.565Z,46.86
2022-08-23T00:42:57.126Z,46.88
2022-08-23T00:46:09.616Z,46.90
2022-08-23T00:56:46.626Z,47.62
2022-08-23T01:03:14.327Z,47.75
2022-08-23T01:06:10.905Z,47.27
2022-08-23T01:08:41.895Z,46.70
2022-08-23T01:11:25.371Z,47.13
2022-08-23T01:14:49.059Z,47.24
2022-08-23T01:17:30.933Z,47.63
2022-08-23T01:20:08.906Z,47.28
2022-08-23T01:23:06.216Z,47.19
2022-08-23T01:25:34.524Z,47.26
2022-08-23T01:28:02.078Z,47.46
2022-08-23T01:34:44.710Z,47.71
2022-08-23T01:37:14.529Z,47.68
2022-08-23T01:39:41.742Z,47.71
2022-08-23T01:42:08.971Z,47.73
2022-08-23T01:44:36.204Z,47.72
2022-08-23T01:47:03.567Z,47.50
2022-08-23T01:49:30.766Z,47.57
2022-08-23T01:56:08.814Z,47.90
2022-08-23T01:58:36.834Z,48.17
2022-08-23T02:05:05.901Z,48.33
2022-08-23T02:07:33.203Z,47.82
2022-08-23T02:10:00.481Z,48.00
2022-08-23T02:12:30.047Z,48.27
2022-08-23T02:14:57.321Z,48.43
2022-08-23T02:17:24.900Z,48.12
2022-08-23T02:19:52.158Z,48.36
2022-08-23T02:26:30.941Z,49.04
2022-08-23T02:32:58.373Z,49.24
2022-08-23T02:35:26.707Z,48.94
2022-08-23T02:37:53.985Z,48.65
2022-08-23T02:40:40.783Z,48.56
2022-08-23T02:43:08.504Z,48.40
2022-08-23T02:46:05.717Z,48.26
2022-08-23T02:48:36.808Z,47.96
2022-08-23T02:51:08.509Z,48.27
2022-08-23T03:06:24.336Z,48.10
2022-08-23T03:08:51.832Z,48.39
2022-08-23T03:11:22.212Z,48.89
2022-08-23T03:13:51.387Z,48.41
2022-08-23T03:20:28.401Z,48.91
2022-08-23T03:22:55.697Z,49.07
2022-08-23T03:25:23.312Z,49.09
2022-08-23T03:27:50.767Z,49.10
2022-08-23T03:30:20.011Z,49.24
2022-08-23T03:32:49.134Z,48.97
2022-08-23T03:35:17.383Z,48.86
2022-08-23T03:37:44.855Z,48.96
2022-08-23T03:40:12.383Z,49.10
2022-08-23T03:42:39.633Z,49.08
2022-08-23T03:45:07.572Z,48.67
2022-08-23T03:47:34.725Z,49.50
2022-08-23T03:50:09.469Z,49.18
2022-08-23T03:52:36.675Z,49.08
2022-08-23T03:55:05.296Z,49.23
2022-08-23T03:57:32.601Z,50.04
2022-08-23T04:04:09.924Z,49.83
2022-08-23T04:10:47.034Z,50.42
2022-08-23T04:13:14.257Z,49.84
2022-08-23T04:15:43.391Z,49.89
2022-08-23T04:18:10.717Z,49.90
2022-08-23T04:20:38.047Z,50.73
2022-08-23T04:23:05.841Z,50.10
2022-08-23T04:25:35.578Z,50.20
2022-08-23T04:28:04.146Z,50.42
2022-08-23T04:34:41.956Z,50.38
2022-08-23T04:37:12.729Z,50.46
2022-08-23T04:39:43.179Z,50.57
2022-08-23T04:46:28.328Z,50.96
2022-08-23T04:48:55.538Z,51.05
2022-08-23T04:51:22.876Z,51.03
2022-08-23T04:53:50.089Z,51.14
2022-08-23T04:56:17.311Z,50.69
2022-08-23T04:58:44.533Z,50.68
2022-08-23T05:05:21.373Z,51.53
2022-08-23T05:07:48.957Z,52.05
2022-08-23T05:14:15.604Z,52.22
2022-08-23T05:16:42.858Z,52.24
2022-08-23T05:19:10.114Z,52.04
2022-08-23T05:25:37.336Z,51.80
2022-08-23T05:28:04.570Z,51.90
2022-08-23T05:30:31.894Z,52.20
2022-08-23T05:32:59.150Z,52.20
2022-08-23T05:35:29.356Z,51.76
2022-08-23T05:37:56.786Z,52.30
2022-08-23T05:40:23.939Z,52.38
2022-08-23T05:47:00.761Z,51.69
2022-08-23T05:53:40.187Z,51.37
2022-08-23T06:00:17.166Z,50.92
2022-08-23T06:02:44.397Z,50.83
2022-08-23T06:09:16.495Z,49.63
2022-08-23T06:11:46.546Z,49.12
2022-08-23T06:14:15.410Z,48.83
2022-08-23T06:16:47.544Z,48.11
2022-08-23T06:19:16.076Z,47.16
2022-08-23T06:25:53.176Z,46.79
2022-08-23T06:28:20.400Z,46.37
2022-08-23T06:30:57.296Z,45.22
2022-08-23T06:33:25.025Z,45.66
2022-08-23T06:36:07.231Z,45.89
2022-08-23T06:42:42.259Z,45.50
2022-08-23T06:45:12.762Z,45.29
2022-08-23T06:51:44.840Z,42.92
2022-08-23T06:54:16.114Z,42.87
2022-08-23T06:56:44.335Z,43.25
2022-08-23T07:00:04.604Z,43.04
2022-08-23T07:02:31.921Z,43.07
2022-08-23T07:04:59.455Z,43.32
2022-08-23T07:07:39.578Z,43.76
2022-08-23T07:10:11.572Z,43.83
2022-08-23T07:12:41.765Z,43.39
2022-08-23T07:15:11.330Z,43.57
2022-08-23T07:17:38.536Z,43.31
2022-08-23T07:20:07.184Z,42.41
2022-08-23T07:31:56.332Z,43.19
2022-08-23T07:34:24.555Z,43.53
2022-08-23T07:41:03.496Z,43.60
2022-08-23T07:43:34.740Z,43.66
2022-08-23T07:46:04.322Z,43.88
2022-08-23T07:52:31.155Z,42.85
2022-08-23T07:59:10.526Z,43.53
2022-08-23T08:01:39.047Z,42.66
2022-08-23T08:04:06.952Z,41.78
2022-08-23T08:06:59.923Z,41.07
2022-08-23T08:09:32.415Z,39.86
2022-08-23T08:11:59.658Z,39.53
2022-08-23T08:14:27.067Z,39.11
2022-08-23T08:16:54.611Z,39.57
2022-08-23T08:19:21.867Z,39.27
2022-08-23T08:21:49.129Z,39.03
2022-08-23T08:24:17.821Z,36.64
2022-08-23T08:26:46.373Z,36.10
2022-08-23T08:29:14.368Z,35.16
2022-08-23T08:31:45.054Z,34.26
2022-08-23T08:34:13.421Z,34.75
2022-08-23T08:36:54.142Z,34.92
2022-08-23T08:39:27.027Z,35.26
2022-08-23T08:42:10.546Z,34.81
2022-08-23T08:44:57.973Z,35.29
2022-08-23T08:47:51.247Z,35.77
2022-08-23T08:50:34.918Z,34.98
2022-08-23T08:53:15.635Z,35.35
2022-08-23T08:55:50.976Z,34.87
2022-08-23T08:58:29.865Z,34.01
2022-08-23T09:00:57.487Z,33.52
2022-08-23T09:03:32.535Z,34.49
2022-08-23T09:06:32.760Z,34.14
2022-08-23T09:09:18.232Z,33.92
2022-08-23T09:11:48.415Z,33.24
2022-08-23T09:14:34.518Z,33.21
2022-08-23T09:17:26.603Z,32.97
2022-08-23T09:19:59.961Z,32.85
2022-08-23T09:30:07.673Z,33.31
2022-08-23T09:37:05.643Z,32.94
2022-08-23T09:39:36.267Z,32.73
2022-08-23T09:45:50.981Z,32.64
2022-08-23T09:48:40.635Z,32.71
2022-08-23T09:51:22.502Z,32.75
2022-08-23T09:54:02.352Z,31.72
2022-08-23T10:00:33.523Z,31.63
2022-08-23T10:03:24.918Z,32.06
2022-08-23T10:05:57.594Z,31.54
2022-08-23T10:08:42.396Z,31.39
2022-08-23T10:11:30.217Z,31.77
2022-08-23T10:13:58.127Z,30.80
2022-08-23T10:17:14.147Z,30.45
2022-08-23T10:19:54.797Z,29.95
2022-08-23T10:22:57.378Z,30.17
2022-08-23T10:25:58.720Z,30.03
2022-08-23T10:28:39.615Z,29.67
2022-08-23T10:31:27.895Z,29.12
2022-08-23T10:34:34.567Z,29.69
2022-08-23T10:37:46.273Z,28.45
2022-08-23T10:40:37.492Z,27.97
2022-08-23T10:43:15.850Z,26.91
2022-08-23T10:45:46.662Z,26.63
2022-08-23T10:48:32.262Z,27.43
2022-08-23T10:51:17.875Z,26.43
2022-08-23T10:54:26.470Z,25.34
2022-08-23T10:56:57.382Z,26.54
2022-08-23T10:59:27.184Z,27.07
2022-08-23T11:02:17.690Z,25.52
2022-08-23T11:05:16.852Z,25.50
2022-08-23T11:07:59.990Z,25.30
2022-08-23T11:10:39.487Z,24.40
2022-08-23T11:13:15.846Z,23.31
2022-08-23T11:15:55.289Z,23.25
2022-08-23T11:22:30.522Z,21.40
2022-08-23T11:29:05.869Z,20.21
2022-08-23T11:31:42.761Z,21.01
2022-08-23T11:34:29.387Z,20.00
2022-08-23T11:37:18.601Z,19.96
2022-08-23T11:39:58.083Z,21.21
2022-08-23T11:42:52.628Z,20.04
2022-08-23T11:45:38.229Z,18.50
2022-08-23T11:48:16.820Z,18.25
2022-08-23T11:51:08.610Z,20.81
2022-08-23T11:54:12.838Z,21.05
2022-08-23T12:04:50.336Z,19.75
2022-08-23T12:07:55.234Z,19.06
2022-08-23T12:10:41.176Z,21.08
2022-08-23T12:13:20.562Z,21.80
2022-08-23T12:16:17.539Z,21.87
2022-08-23T12:18:50.883Z,20.83
2022-08-23T12:21:46.370Z,21.67
2022-08-23T12:24:32.605Z,20.69
2022-08-23T12:27:32.821Z,20.43
2022-08-23T12:30:09.501Z,19.61
2022-08-23T12:33:26.025Z,20.58
2022-08-23T12:39:59.755Z,23.21
2022-08-23T12:42:31.330Z,25.20
2022-08-23T12:45:21.203Z,25.00
2022-08-23T12:48:01.852Z,23.01
2022-08-23T12:50:33.891Z,24.02
2022-08-23T12:53:08.841Z,25.61
2022-08-23T12:55:43.041Z,25.61
2022-08-23T12:58:12.780Z,22.60
2022-08-23T13:00:54.959Z,20.96
2022-08-23T13:03:38.864Z,21.63
2022-08-23T13:06:57.854Z,20.92
2022-08-23T13:09:34.716Z,20.64
2022-08-23T13:12:02.896Z,20.43
2022-08-23T13:18:42.259Z,19.03
2022-08-23T13:21:34.125Z,19.41
2022-08-23T13:24:38.506Z,20.13
2022-08-23T13:31:08.409Z,18.27
2022-08-23T13:37:35.798Z,18.09
2022-08-23T13:40:15.959Z,17.96
2022-08-23T13:42:47.926Z,18.36
2022-08-23T13:49:20.427Z,18.05
2022-08-23T13:52:18.350Z,17.58
2022-08-23T13:54:52.423Z,18.02
2022-08-23T13:57:21.964Z,18.23
2022-08-23T13:59:56.059Z,16.54
2022-08-23T14:02:24.607Z,18.38
2022-08-23T14:04:51.983Z,19.41
2022-08-23T14:07:20.390Z,18.30
2022-08-23T14:09:49.337Z,18.53
2022-08-23T14:12:25.081Z,19.49
2022-08-23T14:14:58.025Z,18.83
2022-08-23T14:17:26.130Z,18.75
2022-08-23T14:20:31.921Z,17.58
2022-08-23T14:22:41.186Z,18.02
2022-08-23T14:25:10.091Z,18.10
2022-08-23T14:27:41.300Z,18.23
2022-08-23T14:30:24.953Z,17.40
2022-08-23T14:32:59.319Z,18.13
2022-08-23T14:35:26.959Z,17.64
2022-08-23T14:38:09.367Z,18.00
2022-08-23T14:40:36.923Z,18.40
2022-08-23T14:43:05.449Z,18.41
2022-08-23T14:45:32.677Z,17.92
2022-08-23T14:48:00.093Z,17.35
2022-08-23T14:50:28.640Z,17.83
2022-08-23T14:52:56.402Z,17.30
2022-08-23T14:55:25.137Z,17.49
2022-08-23T14:57:52.649Z,17.47
2022-08-23T15:00:20.324Z,16.98
2022-08-23T15:02:48.264Z,16.71
2022-08-23T15:05:16.568Z,16.65
2022-08-23T15:07:44.656Z,16.35
2022-08-23T15:10:49.985Z,16.47
2022-08-23T15:13:19.169Z,16.80
2022-08-23T15:15:49.246Z,17.47
2022-08-23T15:18:18.236Z,17.71
2022-08-23T15:20:46.321Z,17.27
2022-08-23T15:23:14.381Z,17.41
2022-08-23T15:25:44.653Z,16.68
2022-08-23T15:28:16.920Z,16.13
2022-08-23T15:30:45.986Z,17.27
2022-08-23T15:33:13.667Z,16.80
2022-08-23T15:35:50.762Z,16.84
2022-08-23T15:38:19.401Z,18.04
2022-08-23T15:40:46.833Z,17.56
2022-08-23T15:43:14.091Z,17.10
2022-08-23T15:45:41.819Z,16.74
2022-08-23T15:48:32.055Z,16.05
2022-08-23T15:51:00.176Z,16.34
2022-08-23T15:53:27.663Z,16.75
2022-08-23T15:55:54.843Z,16.74
2022-08-23T15:58:26.303Z,16.66
2022-08-23T16:00:55.023Z,16.51
2022-08-23T16:03:23.129Z,17.32
2022-08-23T16:05:53.637Z,17.07
2022-08-23T16:08:28.259Z,18.85
2022-08-23T16:10:56.297Z,19.43
2022-08-23T16:13:25.769Z,19.59
2022-08-23T16:15:53.539Z,18.43
2022-08-23T16:18:20.843Z,18.77
2022-08-23T16:20:48.163Z,18.89
2022-08-23T16:23:15.469Z,19.88
2022-08-23T16:25:43.182Z,20.29
2022-08-23T16:28:10.392Z,20.66
2022-08-23T16:30:37.791Z,21.17
2022-08-23T16:33:05.200Z,22.36
2022-08-23T16:35:32.492Z,22.55
2022-08-23T16:37:59.749Z,22.67
2022-08-23T16:40:27.225Z,23.88
2022-08-23T16:42:54.437Z,24.08
2022-08-23T16:45:25.851Z,24.44
2022-08-23T16:47:54.366Z,25.33
2022-08-23T16:50:21.785Z,25.47
2022-08-23T16:52:48.951Z,25.65
2022-08-23T16:55:16.571Z,24.67
2022-08-23T16:57:46.601Z,26.04
2022-08-23T17:00:14.440Z,25.17
2022-08-23T17:02:43.269Z,25.22
2022-08-23T17:05:17.325Z,25.44
2022-08-23T17:07:45.367Z,25.62
2022-08-23T17:10:15.757Z,25.62
2022-08-23T17:12:47.361Z,26.51
2022-08-23T17:15:20.566Z,26.91
2022-08-23T17:17:49.382Z,27.41
2022-08-23T17:20:20.598Z,28.53
2022-08-23T17:22:48.716Z,27.89
2022-08-23T17:25:18.080Z,27.07
2022-08-23T17:27:47.326Z,26.18
2022-08-23T17:30:20.757Z,27.55
2022-08-23T17:32:49.716Z,28.20
2022-08-23T17:35:22.176Z,28.77
2022-08-23T17:37:50.107Z,28.83
2022-08-23T17:40:25.906Z,28.39
2022-08-23T17:42:53.305Z,29.39
2022-08-23T17:45:22.481Z,30.49
2022-08-23T17:47:50.466Z,30.43
2022-08-23T17:50:18.936Z,30.73
2022-08-23T17:52:46.470Z,30.46
2022-08-23T17:55:15.049Z,31.32
2022-08-23T17:57:43.399Z,31.17
2022-08-23T18:00:12.851Z,31.52
2022-08-23T18:02:41.076Z,31.40
2022-08-23T18:05:09.743Z,32.66
2022-08-23T18:07:39.078Z,33.35
2022-08-23T18:10:08.382Z,33.53
2022-08-23T18:12:36.948Z,33.99
2022-08-23T18:15:05.486Z,34.73
2022-08-23T18:17:36.501Z,34.67
2022-08-23T18:20:10.704Z,35.35
2022-08-23T18:22:42.066Z,35.54
2022-08-23T18:25:11.278Z,34.69
2022-08-23T18:27:38.460Z,35.20
2022-08-23T18:30:09.962Z,35.71
2022-08-23T18:32:37.716Z,35.62
2022-08-23T18:35:06.538Z,35.92
2022-08-23T18:37:35.082Z,36.52
2022-08-23T18:40:09.559Z,36.94
2022-08-23T18:42:37.964Z,37.34
2022-08-23T18:45:08.379Z,38.13
2022-08-23T18:47:35.702Z,37.44
2022-08-23T18:50:08.889Z,36.86
2022-08-23T18:52:36.465Z,37.42
2022-08-23T18:55:05.199Z,37.83
2022-08-23T18:57:32.399Z,38.06
2022-08-23T18:59:59.695Z,38.05
2022-08-23T19:02:27.044Z,38.02
2022-08-23T19:04:54.255Z,38.33
2022-08-23T19:07:21.453Z,38.75
2022-08-23T19:09:49.490Z,38.15
2022-08-23T19:12:17.068Z,38.63
2022-08-23T19:14:44.425Z,38.34
2022-08-23T19:17:11.651Z,38.73
2022-08-23T19:19:38.953Z,38.85
2022-08-23T19:22:09.005Z,38.73
2022-08-23T19:24:36.287Z,39.24
2022-08-23T19:27:05.931Z,39.17
2022-08-23T19:29:33.728Z,39.16
2022-08-23T19:32:01.169Z,39.26
2022-08-23T19:34:28.541Z,39.43
2022-08-23T19:37:01.199Z,39.88
2022-08-23T19:39:30.099Z,39.98
2022-08-23T19:41:58.148Z,40.13
2022-08-23T19:44:25.724Z,39.96
2022-08-23T19:46:55.350Z,40.15
2022-08-23T19:49:22.915Z,40.08
2022-08-23T19:51:50.155Z,40.13
2022-08-23T19:54:17.503Z,40.49
2022-08-23T19:56:52.620Z,39.96
2022-08-23T19:59:25.216Z,40.19
2022-08-23T20:01:55.043Z,40.75
2022-08-23T20:04:24.168Z,41.10
2022-08-23T20:06:51.435Z,41.24
2022-08-23T20:09:22.104Z,40.88
2022-08-23T20:11:52.010Z,40.67
2022-08-23T20:14:21.316Z,40.94
2022-08-23T20:16:49.436Z,40.95
2022-08-23T20:19:17.877Z,41.35
2022-08-23T20:21:45.303Z,41.39
2022-08-23T20:24:15.081Z,40.71
2022-08-23T20:26:48.064Z,40.92
2022-08-23T20:29:20.454Z,41.57
2022-08-23T20:31:58.440Z,41.92
2022-08-23T20:34:27.164Z,41.97
2022-08-23T20:36:55.702Z,42.15
2022-08-23T20:39:24.450Z,42.31
2022-08-23T20:41:53.422Z,42.40
2022-08-23T20:44:26.178Z,42.18
2022-08-23T20:46:56.739Z,42.08
2022-08-23T20:49:26.944Z,42.01
2022-08-23T20:51:54.212Z,42.10
2022-08-23T20:54:22.760Z,42.35
2022-08-23T20:56:51.753Z,41.64
2022-08-23T20:59:20.471Z,41.80
2022-08-23T21:01:50.562Z,42.31
2022-08-23T21:04:19.302Z,42.30
2022-08-23T21:06:51.820Z,42.80
2022-08-23T21:09:27.717Z,43.01
2022-08-23T21:11:57.462Z,42.76
2022-08-23T21:14:24.732Z,43.00
2022-08-23T21:16:52.028Z,42.47
2022-08-23T21:19:19.193Z,42.57
2022-08-23T21:21:46.720Z,42.99
2022-08-23T21:24:14.697Z,43.26
2022-08-23T21:26:42.378Z,43.06
2022-08-23T21:29:10.438Z,42.89
2022-08-23T21:31:39.175Z,42.94
2022-08-23T21:34:07.162Z,43.28
2022-08-23T21:36:40.947Z,43.59
2022-08-23T21:39:08.198Z,43.56
2022-08-23T21:41:40.643Z,43.62
2022-08-23T21:44:13.323Z,43.43
2022-08-23T21:46:42.012Z,43.40
2022-08-23T21:49:12.192Z,43.92
2022-08-23T21:51:40.917Z,43.41
2022-08-23T21:54:11.855Z,43.35
2022-08-23T21:56:39.763Z,43.47
2022-08-23T21:59:12.061Z,44.09
2022-08-23T22:01:40.217Z,44.36
2022-08-23T22:04:10.549Z,44.31
2022-08-23T22:06:38.423Z,44.16
2022-08-23T22:09:10.539Z,44.32
2022-08-23T22:11:39.983Z,44.44
2022-08-23T22:14:10.605Z,44.46
2022-08-23T22:16:37.915Z,44.44
2022-08-23T22:19:05.441Z,44.73
2022-08-23T22:21:35.581Z,44.88
2022-08-23T22:24:03.317Z,44.98
2022-08-23T22:26:30.785Z,45.19
2022-08-23T22:28:58.020Z,45.28
2022-08-23T22:31:25.304Z,45.45
2022-08-23T22:33:53.045Z,45.27
2022-08-23T22:36:22.781Z,45.04
2022-08-23T22:38:51.526Z,45.08
2022-08-23T22:41:25.675Z,44.76
2022-08-23T22:43:54.615Z,44.59
2022-08-23T22:46:23.216Z,44.89
2022-08-23T22:48:50.502Z,44.96
2022-08-23T22:51:22.721Z,45.19
2022-08-23T22:53:57.217Z,45.00
2022-08-23T22:56:47.203Z,45.25
2022-08-23T22:59:16.540Z,45.39
2022-08-23T23:01:49.894Z,45.82
2022-08-23T23:04:20.873Z,45.79
2022-08-23T23:06:49.481Z,45.49
2022-08-23T23:09:17.365Z,45.60
2022-08-23T23:11:46.108Z,45.85
2022-08-23T23:14:16.468Z,45.88
2022-08-23T23:16:44.946Z,45.98
2022-08-23T23:19:12.685Z,45.95
2022-08-23T23:21:51.384Z,46.12
2022-08-23T23:24:26.925Z,46.71
2022-08-23T23:26:54.110Z,46.37
2022-08-23T23:29:21.986Z,46.13
2022-08-23T23:31:49.745Z,46.46
2022-08-23T23:34:17.329Z,46.20
2022-08-23T23:36:45.671Z,46.30
2022-08-23T23:39:14.660Z,46.07
2022-08-23T23:41:43.251Z,46.04
2022-08-23T23:44:10.501Z,46.49
2022-08-23T23:46:37.797Z,46.79
2022-08-23T23:49:05.147Z,46.69
2022-08-23T23:51:33.255Z,46.89
2022-08-23T23:54:01.378Z,46.61
2022-08-23T23:56:31.022Z,46.77
2022-08-23T23:58:58.882Z,46.65
